Terminal Aerodrome Forecast
Issued by NWS

Home | Current Version | Previous Version | Text Only | Print | Product List | Glossary On
Versions: 1 2 3 4 5 6 7 8 9 10 11 12 13 14
000
FTUS42 KRAH 110548 AAA
TAFRWI
TAF AMD
KRWI 110548Z 1106/1206 00000KT P6SM FEW250
     FM112000 14005KT P6SM BKN040 OVC250
     FM120100 14006KT P6SM -RA SCT011 OVC024
     FM120500 20004KT 2SM -RA BR OVC006=

USA.gov is the U.S. government's official web portal to all federal, state and local government web resources and services.